Good Luck — A8ZS4 — position and weather

sailwx.info

Track history (hours):
 
Tides and Currents Weather Stations Pressure Air Temp Water Temp Dewpoint Dewpoint Depression Visibility Wind Speed Wind Dir Waves Ship Positions

Good Luck

Last reported at 2017-Nov-28 19:27 UTC. Time now 2017-Dec-17 12:09 UTC.
Position N 27°26' W 015°14'.
Warning: this ship's position is 18 days out of date.

Length 225 m; draft 14.3 m.

Type: Cargo ship. MMSI: 636015287.

Date/timePositionNaut miles runAvg speedWind from/ knotsBaromVisibWave heightAir tempDewpointWater temp
2017-Nov-28 19:27N 27°26' W 015°14'510.9
2017-Nov-28 19:00N 27°31' W 015°13'510.9
2017-Nov-28 18:31N 27°36' W 015°12'611.1
2017-Nov-28 18:01N 27°42' W 015°12'510.8
2017-Nov-28 17:30N 27°47' W 015°12'510.6
2017-Nov-28 17:00N 27°53' W 015°12'510.2
2017-Nov-28 16:30N 27°58' W 015°13'611.1
2017-Nov-28 16:00N 28°02' W 015°17'7 6.8
2017-Nov-28 15:00N 28°06' W 015°24'0 0.2
2017-Nov-28 14:24N 28°06' W 015°24'0 0.1
2017-Nov-28 14:00N 28°06' W 015°24'0 0.1
2017-Nov-28 13:30N 28°06' W 015°24'0 0.1
2017-Nov-28 13:00N 28°06' W 015°24'0 0.1
2017-Nov-28 12:30N 28°06' W 015°24'0 0.0
2017-Nov-28 11:57N 28°06' W 015°24'0 0.1
2017-Nov-28 11:30N 28°06' W 015°24'0 0.2
2017-Nov-28 11:00N 28°06' W 015°23'0 0.7
2017-Nov-28 10:31N 28°06' W 015°23'3 6.6
2017-Nov-28 10:01N 28°09' W 015°22'611.0
2017-Nov-28 09:31N 28°14' W 015°20'611.1
2017-Nov-28 09:01N 28°20' W 015°19'611.3
2017-Nov-28 08:30N 28°25' W 015°17'611.5
2017-Nov-28 08:00N 28°31' W 015°15'611.5
2017-Nov-28 07:30N 28°37' W 015°14'611.5
2017-Nov-28 07:00N 28°42' W 015°12'611.5
2017-Nov-28 06:30N 28°48' W 015°11'611.5
2017-Nov-28 06:00N 28°53' W 015°09'711.5
2017-Nov-28 05:26N 28°60' W 015°08'1111.5
2017-Nov-28 04:30N 29°10' W 015°05'611.7
2017-Nov-28 04:00N 29°16' W 015°03'611.8
2017-Nov-28 03:30N 29°22' W 015°02'611.6
2017-Nov-28 03:00N 29°27' W 015°00'611.6
2017-Nov-28 02:30N 29°33' W 014°59'611.6
2017-Nov-28 02:00N 29°38' W 014°57'611.7
2017-Nov-28 01:31N 29°44' W 014°55'611.6
2017-Nov-28 01:01N 29°50' W 014°53'611.5
2017-Nov-28 00:30N 29°55' W 014°52'611.4
2017-Nov-28 00:01N 30°01' W 014°50'2111.2
2017-Nov-27 22:09N 30°21' W 014°45'210.9
2017-Nov-27 22:00N 30°23' W 014°44'611.1
2017-Nov-27 21:30N 30°28' W 014°43'611.2
2017-Nov-27 21:00N 30°33' W 014°41'511.2
2017-Nov-27 20:31N 30°39' W 014°40'611.0
2017-Nov-27 20:01N 30°44' W 014°38'1811.0
2017-Nov-27 18:23N 31°01' W 014°33'411.0
2017-Nov-27 18:00N 31°05' W 014°32'4610.3
2017-Nov-27 13:29N 31°51' W 014°20'  
2017-Nov-19 01:09N 57°26' E 008°23'1 6.4
2017-Nov-19 00:58N 57°27' E 008°25'3 5.9
2017-Nov-19 00:29N 57°29' E 008°28'3 5.3
2017-Nov-19 00:00N 57°30' E 008°32'3 5.6
2017-Nov-18 23:30N 57°32' E 008°37'3 5.4
2017-Nov-18 23:00N 57°33' E 008°42'  
Track history (hours):
 
Tides and Currents Weather Stations Pressure Air Temp Water Temp Dewpoint Dewpoint Depression Visibility Wind Speed Wind Dir Waves Ship Positions

Good Luck

Last reported at 2017-Nov-28 19:27 UTC. Time now 2017-Dec-17 12:09 UTC.
Position N 27°26' W 015°14'.
Warning: this ship's position is 18 days out of date.

Length 225 m; draft 14.3 m.

Type: Cargo ship. MMSI: 636015287.

Date/timePositionNaut miles runAvg speedWind from/ knotsBaromVisibWave heightAir tempDewpointWater temp
2017-Nov-28 19:27N 27°26' W 015°14'510.9
2017-Nov-28 19:00N 27°31' W 015°13'510.9
2017-Nov-28 18:31N 27°36' W 015°12'611.1
2017-Nov-28 18:01N 27°42' W 015°12'510.8
2017-Nov-28 17:30N 27°47' W 015°12'510.6
2017-Nov-28 17:00N 27°53' W 015°12'510.2
2017-Nov-28 16:30N 27°58' W 015°13'611.1
2017-Nov-28 16:00N 28°02' W 015°17'7 6.8
2017-Nov-28 15:00N 28°06' W 015°24'0 0.2
2017-Nov-28 14:24N 28°06' W 015°24'0 0.1
2017-Nov-28 14:00N 28°06' W 015°24'0 0.1
2017-Nov-28 13:30N 28°06' W 015°24'0 0.1
2017-Nov-28 13:00N 28°06' W 015°24'0 0.1
2017-Nov-28 12:30N 28°06' W 015°24'0 0.0
2017-Nov-28 11:57N 28°06' W 015°24'0 0.1
2017-Nov-28 11:30N 28°06' W 015°24'0 0.2
2017-Nov-28 11:00N 28°06' W 015°23'0 0.7
2017-Nov-28 10:31N 28°06' W 015°23'3 6.6
2017-Nov-28 10:01N 28°09' W 015°22'611.0
2017-Nov-28 09:31N 28°14' W 015°20'611.1
2017-Nov-28 09:01N 28°20' W 015°19'611.3
2017-Nov-28 08:30N 28°25' W 015°17'611.5
2017-Nov-28 08:00N 28°31' W 015°15'611.5
2017-Nov-28 07:30N 28°37' W 015°14'611.5
2017-Nov-28 07:00N 28°42' W 015°12'611.5
2017-Nov-28 06:30N 28°48' W 015°11'611.5
2017-Nov-28 06:00N 28°53' W 015°09'711.5
2017-Nov-28 05:26N 28°60' W 015°08'1111.5
2017-Nov-28 04:30N 29°10' W 015°05'611.7
2017-Nov-28 04:00N 29°16' W 015°03'611.8
2017-Nov-28 03:30N 29°22' W 015°02'611.6
2017-Nov-28 03:00N 29°27' W 015°00'611.6
2017-Nov-28 02:30N 29°33' W 014°59'611.6
2017-Nov-28 02:00N 29°38' W 014°57'611.7
2017-Nov-28 01:31N 29°44' W 014°55'611.6
2017-Nov-28 01:01N 29°50' W 014°53'611.5
2017-Nov-28 00:30N 29°55' W 014°52'611.4
2017-Nov-28 00:01N 30°01' W 014°50'2111.2
2017-Nov-27 22:09N 30°21' W 014°45'210.9
2017-Nov-27 22:00N 30°23' W 014°44'611.1
2017-Nov-27 21:30N 30°28' W 014°43'611.2
2017-Nov-27 21:00N 30°33' W 014°41'511.2
2017-Nov-27 20:31N 30°39' W 014°40'611.0
2017-Nov-27 20:01N 30°44' W 014°38'1811.0
2017-Nov-27 18:23N 31°01' W 014°33'411.0
2017-Nov-27 18:00N 31°05' W 014°32'4610.3
2017-Nov-27 13:29N 31°51' W 014°20'  
2017-Nov-19 01:09N 57°26' E 008°23'1 6.4
2017-Nov-19 00:58N 57°27' E 008°25'3 5.9
2017-Nov-19 00:29N 57°29' E 008°28'3 5.3
2017-Nov-19 00:00N 57°30' E 008°32'3 5.6
2017-Nov-18 23:30N 57°32' E 008°37'3 5.4
2017-Nov-18 23:00N 57°33' E 008°42'  

Dump ship's entire track history